Time;durP1;ratioP1;P1;durP2;ratioP2;P2;SDS_P1;SDS_P2;PMS_P1;PMS_P2;Temp;Humidity;BMP_temperature;BMP_pressure;BME280_temperature;BME280_humidity;BME280_pressure;Samples;Min_cycle;Max_cycle;Signal;HPM_P1;HPM_P2
2021/04/03 00:00:10;;;;;;;7.05;4.6;;;;;;;3.75;54.77734;95290.84;;;;
2021/04/03 00:01:13;;;;;;;7.05;4.6;;;;;;;3.75;54.77734;95290.84;;;;
2021/04/03 00:02:14;;;;;;;7.05;4.6;;;;;;;3.75;54.77734;95290.84;;;;
2021/04/03 00:03:15;;;;;;;7.05;4.6;;;;;;;3.75;54.77734;95290.84;;;;
2021/04/03 00:04:17;;;;;;;7.05;4.6;;;;;;;3.75;54.77734;95290.84;;;;
2021/04/03 00:05:18;;;;;;;7.05;4.6;;;;;;;3.75;54.77734;95290.84;;;;
2021/04/03 00:06:19;;;;;;;6.65;4.7;;;;;;;3.51;55.43457;95287.25;;;;
2021/04/03 00:07:20;;;;;;;6.65;4.7;;;;;;;3.51;55.43457;95287.25;;;;
2021/04/03 00:08:21;;;;;;;6.65;4.7;;;;;;;3.51;55.43457;95287.25;;;;
2021/04/03 00:09:22;;;;;;;6.65;4.7;;;;;;;3.51;55.43457;95287.25;;;;
2021/04/03 00:10:23;;;;;;;6.65;4.7;;;;;;;3.51;55.43457;95287.25;;;;
2021/04/03 00:11:34;;;;;;;6.65;4.7;;;;;;;3.51;55.43457;95287.25;;;;
2021/04/03 00:12:35;;;;;;;6.65;4.7;;;;;;;3.51;55.43457;95287.25;;;;
2021/04/03 00:13:36;;;;;;;6.65;4.7;;;;;;;3.51;55.43457;95287.25;;;;
2021/04/03 00:14:39;;;;;;;6.65;4.7;;;;;;;3.51;55.43457;95287.25;;;;
2021/04/03 00:15:40;;;;;;;6.65;4.7;;;;;;;3.51;55.43457;95287.25;;;;
2021/04/03 00:16:41;;;;;;;6.249999;4.8;;;;;;;3.32;55.64258;95294.17;;;;
2021/04/03 00:17:42;;;;;;;6.249999;4.8;;;;;;;3.32;55.64258;95294.17;;;;
2021/04/03 00:18:43;;;;;;;6.249999;4.8;;;;;;;3.32;55.64258;95294.17;;;;
2021/04/03 00:19:43;;;;;;;6.249999;4.8;;;;;;;3.32;55.64258;95294.17;;;;
2021/04/03 00:20:45;;;;;;;6.249999;4.8;;;;;;;3.32;55.64258;95294.17;;;;
2021/04/03 00:21:47;;;;;;;6.249999;4.8;;;;;;;3.32;55.64258;95294.17;;;;
2021/04/03 00:22:48;;;;;;;6.249999;4.8;;;;;;;3.32;55.64258;95294.17;;;;
2021/04/03 00:23:49;;;;;;;6.249999;4.8;;;;;;;3.32;55.64258;95294.17;;;;
2021/04/03 00:24:49;;;;;;;6.249999;4.8;;;;;;;3.32;55.64258;95294.17;;;;
2021/04/03 00:25:50;;;;;;;6.249999;4.8;;;;;;;3.32;55.64258;95294.17;;;;
2021/04/03 00:26:51;;;;;;;8.75;5.65;;;;;;;3.08;55.75879;95290.95;;;;
2021/04/03 00:27:51;;;;;;;8.75;5.65;;;;;;;3.08;55.75879;95290.95;;;;
2021/04/03 00:28:52;;;;;;;8.75;5.65;;;;;;;3.08;55.75879;95290.95;;;;
2021/04/03 00:29:53;;;;;;;8.75;5.65;;;;;;;3.08;55.75879;95290.95;;;;
2021/04/03 00:30:53;;;;;;;8.75;5.65;;;;;;;3.08;55.75879;95290.95;;;;
2021/04/03 00:31:54;;;;;;;8.75;5.65;;;;;;;3.08;55.75879;95290.95;;;;
2021/04/03 00:32:54;;;;;;;8.75;5.65;;;;;;;3.08;55.75879;95290.95;;;;
2021/04/03 00:33:58;;;;;;;8.75;5.65;;;;;;;3.08;55.75879;95290.95;;;;
2021/04/03 00:34:58;;;;;;;8.75;5.65;;;;;;;3.08;55.75879;95290.95;;;;
2021/04/03 00:35:59;;;;;;;8.75;5.65;;;;;;;3.08;55.75879;95290.95;;;;
2021/04/03 00:36:59;;;;;;;8.75;5.65;;;;;;;3.08;55.75879;95290.95;;;;
2021/04/03 00:38:00;;;;;;;6.95;5.200001;;;;;;;2.99;56.7832;95277.42;;;;
2021/04/03 00:39:02;;;;;;;6.95;5.200001;;;;;;;2.99;56.7832;95277.42;;;;
2021/04/03 00:40:04;;;;;;;6.95;5.200001;;;;;;;2.99;56.7832;95277.42;;;;
2021/04/03 00:41:09;;;;;;;6.95;5.200001;;;;;;;2.99;56.7832;95277.42;;;;
2021/04/03 00:42:10;;;;;;;6.95;5.200001;;;;;;;2.99;56.7832;95277.42;;;;
2021/04/03 00:43:13;;;;;;;6.95;5.200001;;;;;;;2.99;56.7832;95277.42;;;;
2021/04/03 00:44:15;;;;;;;6.95;5.200001;;;;;;;2.99;56.7832;95277.42;;;;
2021/04/03 00:45:15;;;;;;;6.95;5.200001;;;;;;;2.99;56.7832;95277.42;;;;
2021/04/03 00:46:17;;;;;;;6.95;5.200001;;;;;;;2.99;56.7832;95277.42;;;;
2021/04/03 00:47:18;;;;;;;6.95;5.200001;;;;;;;2.99;56.7832;95277.42;;;;
2021/04/03 00:48:18;;;;;;;8.550001;5.599999;;;;;;;2.96;57.10742;95274.65;;;;
2021/04/03 00:49:21;;;;;;;8.550001;5.599999;;;;;;;2.96;57.10742;95274.65;;;;
2021/04/03 00:50:21;;;;;;;8.550001;5.599999;;;;;;;2.96;57.10742;95274.65;;;;
2021/04/03 00:51:26;;;;;;;8.550001;5.599999;;;;;;;2.96;57.10742;95274.65;;;;
2021/04/03 00:52:27;;;;;;;8.550001;5.599999;;;;;;;2.96;57.10742;95274.65;;;;
2021/04/03 00:53:28;;;;;;;8.550001;5.599999;;;;;;;2.96;57.10742;95274.65;;;;
2021/04/03 00:54:29;;;;;;;8.550001;5.599999;;;;;;;2.96;57.10742;95274.65;;;;
2021/04/03 00:55:29;;;;;;;8.550001;5.599999;;;;;;;2.96;57.10742;95274.65;;;;
2021/04/03 00:56:30;;;;;;;8.550001;5.599999;;;;;;;2.96;57.10742;95274.65;;;;
2021/04/03 00:57:31;;;;;;;8.550001;5.599999;;;;;;;2.96;57.10742;95274.65;;;;
2021/04/03 00:58:32;;;;;;;8.550001;5.599999;;;;;;;2.96;57.10742;95274.65;;;;
2021/04/03 00:59:33;;;;;;;9.35;5.849999;;;;;;;2.93;56.88184;95282.62;;;;
2021/04/03 01:00:34;;;;;;;9.35;5.849999;;;;;;;2.93;56.88184;95282.62;;;;
2021/04/03 01:01:34;;;;;;;9.35;5.849999;;;;;;;2.93;56.88184;95282.62;;;;
2021/04/03 01:02:35;;;;;;;9.35;5.849999;;;;;;;2.93;56.88184;95282.62;;;;
2021/04/03 01:03:36;;;;;;;9.35;5.849999;;;;;;;2.93;56.88184;95282.62;;;;
2021/04/03 01:04:37;;;;;;;9.35;5.849999;;;;;;;2.93;56.88184;95282.62;;;;
2021/04/03 01:05:38;;;;;;;9.35;5.849999;;;;;;;2.93;56.88184;95282.62;;;;
2021/04/03 01:06:39;;;;;;;9.35;5.849999;;;;;;;2.93;56.88184;95282.62;;;;
2021/04/03 01:07:39;;;;;;;9.35;5.849999;;;;;;;2.93;56.88184;95282.62;;;;
2021/04/03 01:08:40;;;;;;;9.35;5.849999;;;;;;;2.93;56.88184;95282.62;;;;
2021/04/03 01:09:41;;;;;;;10.7;6.050001;;;;;;;3.1;57.06152;95280.92;;;;
2021/04/03 01:10:41;;;;;;;10.7;6.050001;;;;;;;3.1;57.06152;95280.92;;;;
2021/04/03 01:11:47;;;;;;;10.7;6.050001;;;;;;;3.1;57.06152;95280.92;;;;
2021/04/03 01:12:57;;;;;;;10.7;6.050001;;;;;;;3.1;57.06152;95280.92;;;;
2021/04/03 01:14:20;;;;;;;10.7;6.050001;;;;;;;3.1;57.06152;95280.92;;;;
2021/04/03 01:15:29;;;;;;;10.7;6.050001;;;;;;;3.1;57.06152;95280.92;;;;
2021/04/03 01:16:38;;;;;;;10.7;6.050001;;;;;;;3.1;57.06152;95280.92;;;;
2021/04/03 01:17:46;;;;;;;10.7;6.050001;;;;;;;3.1;57.06152;95280.92;;;;
2021/04/03 01:18:58;;;;;;;10.7;6.050001;;;;;;;3.1;57.06152;95280.92;;;;
2021/04/03 01:20:13;;;;;;;8.7;6.000001;;;;;;;3.46;57.2041;95291.94;;;;
2021/04/03 01:21:25;;;;;;;8.7;6.000001;;;;;;;3.46;57.2041;95291.94;;;;
2021/04/03 01:22:42;;;;;;;8.7;6.000001;;;;;;;3.46;57.2041;95291.94;;;;
2021/04/03 01:24:01;;;;;;;8.7;6.000001;;;;;;;3.46;57.2041;95291.94;;;;
2021/04/03 01:25:24;;;;;;;8.7;6.000001;;;;;;;3.46;57.2041;95291.94;;;;
2021/04/03 01:26:36;;;;;;;8.7;6.000001;;;;;;;3.46;57.2041;95291.94;;;;
2021/04/03 01:27:59;;;;;;;8.7;6.000001;;;;;;;3.46;57.2041;95291.94;;;;
2021/04/03 01:29:22;;;;;;;8.7;6.000001;;;;;;;3.46;57.2041;95291.94;;;;
2021/04/03 01:31:05;;;;;;;10.6;5.900001;;;;;;;3.69;57.3418;95298.78;;;;
2021/04/03 01:32:07;;;;;;;10.6;5.900001;;;;;;;3.69;57.3418;95298.78;;;;
2021/04/03 01:33:09;;;;;;;10.6;5.900001;;;;;;;3.69;57.3418;95298.78;;;;
2021/04/03 01:34:12;;;;;;;10.6;5.900001;;;;;;;3.69;57.3418;95298.78;;;;
2021/04/03 01:35:20;;;;;;;10.6;5.900001;;;;;;;3.69;57.3418;95298.78;;;;
2021/04/03 01:36:24;;;;;;;10.6;5.900001;;;;;;;3.69;57.3418;95298.78;;;;
2021/04/03 01:37:28;;;;;;;10.6;5.900001;;;;;;;3.69;57.3418;95298.78;;;;
2021/04/03 01:38:31;;;;;;;10.6;5.900001;;;;;;;3.69;57.3418;95298.78;;;;
2021/04/03 01:39:36;;;;;;;10.6;5.900001;;;;;;;3.69;57.3418;95298.78;;;;
2021/04/03 01:40:41;;;;;;;10.6;5.900001;;;;;;;3.69;57.3418;95298.78;;;;
2021/04/03 01:41:42;;;;;;;8;6.050001;;;;;;;3.96;57.23926;95317.61;;;;
2021/04/03 01:42:47;;;;;;;8;6.050001;;;;;;;3.96;57.23926;95317.61;;;;
2021/04/03 01:43:53;;;;;;;8;6.050001;;;;;;;3.96;57.23926;95317.61;;;;
2021/04/03 01:44:57;;;;;;;8;6.050001;;;;;;;3.96;57.23926;95317.61;;;;
2021/04/03 01:46:00;;;;;;;8;6.050001;;;;;;;3.96;57.23926;95317.61;;;;
2021/04/03 01:47:02;;;;;;;8;6.050001;;;;;;;3.96;57.23926;95317.61;;;;
2021/04/03 01:48:04;;;;;;;8;6.050001;;;;;;;3.96;57.23926;95317.61;;;;
2021/04/03 01:49:09;;;;;;;8;6.050001;;;;;;;3.96;57.23926;95317.61;;;;
2021/04/03 01:50:13;;;;;;;8;6.050001;;;;;;;3.96;57.23926;95317.61;;;;
2021/04/03 01:51:15;;;;;;;8;6.050001;;;;;;;3.96;57.23926;95317.61;;;;
2021/04/03 01:52:17;;;;;;;8.85;5.5;;;;;;;4.12;57.47363;95327.88;;;;
2021/04/03 01:53:22;;;;;;;8.85;5.5;;;;;;;4.12;57.47363;95327.88;;;;
2021/04/03 01:54:23;;;;;;;8.85;5.5;;;;;;;4.12;57.47363;95327.88;;;;
2021/04/03 01:55:26;;;;;;;8.85;5.5;;;;;;;4.12;57.47363;95327.88;;;;
2021/04/03 01:56:27;;;;;;;8.85;5.5;;;;;;;4.12;57.47363;95327.88;;;;
2021/04/03 01:57:29;;;;;;;8.85;5.5;;;;;;;4.12;57.47363;95327.88;;;;
2021/04/03 01:58:31;;;;;;;8.85;5.5;;;;;;;4.12;57.47363;95327.88;;;;
2021/04/03 01:59:33;;;;;;;8.85;5.5;;;;;;;4.12;57.47363;95327.88;;;;
2021/04/03 02:00:36;;;;;;;8.85;5.5;;;;;;;4.12;57.47363;95327.88;;;;
2021/04/03 02:01:39;;;;;;;8.85;5.5;;;;;;;4.12;57.47363;95327.88;;;;
2021/04/03 02:02:41;;;;;;;8.85;5.5;;;;;;;4.12;57.47363;95327.88;;;;
2021/04/03 02:03:43;;;;;;;8.500002;5.7;;;;;;;4.16;58.97266;95334.58;;;;
2021/04/03 02:04:46;;;;;;;8.500002;5.7;;;;;;;4.16;58.97266;95334.58;;;;
2021/04/03 02:05:47;;;;;;;8.500002;5.7;;;;;;;4.16;58.97266;95334.58;;;;
2021/04/03 02:06:48;;;;;;;8.500002;5.7;;;;;;;4.16;58.97266;95334.58;;;;
2021/04/03 02:07:49;;;;;;;8.500002;5.7;;;;;;;4.16;58.97266;95334.58;;;;
2021/04/03 02:08:51;;;;;;;8.500002;5.7;;;;;;;4.16;58.97266;95334.58;;;;
2021/04/03 02:09:53;;;;;;;8.500002;5.7;;;;;;;4.16;58.97266;95334.58;;;;
2021/04/03 02:10:55;;;;;;;8.500002;5.7;;;;;;;4.16;58.97266;95334.58;;;;
2021/04/03 02:12:00;;;;;;;8.500002;5.7;;;;;;;4.16;58.97266;95334.58;;;;
2021/04/03 02:13:03;;;;;;;8.500002;5.7;;;;;;;4.16;58.97266;95334.58;;;;
2021/04/03 02:14:06;;;;;;;9.349998;5.9;;;;;;;4.17;59.36523;95331.32;;;;
2021/04/03 02:15:07;;;;;;;9.349998;5.9;;;;;;;4.17;59.36523;95331.32;;;;
2021/04/03 02:16:10;;;;;;;9.349998;5.9;;;;;;;4.17;59.36523;95331.32;;;;
2021/04/03 02:17:11;;;;;;;9.349998;5.9;;;;;;;4.17;59.36523;95331.32;;;;
2021/04/03 02:18:14;;;;;;;9.349998;5.9;;;;;;;4.17;59.36523;95331.32;;;;
2021/04/03 02:19:18;;;;;;;9.349998;5.9;;;;;;;4.17;59.36523;95331.32;;;;
2021/04/03 02:20:20;;;;;;;9.349998;5.9;;;;;;;4.17;59.36523;95331.32;;;;
2021/04/03 02:21:21;;;;;;;9.349998;5.9;;;;;;;4.17;59.36523;95331.32;;;;
2021/04/03 02:22:22;;;;;;;9.349998;5.9;;;;;;;4.17;59.36523;95331.32;;;;
2021/04/03 02:23:23;;;;;;;9.349998;5.9;;;;;;;4.17;59.36523;95331.32;;;;
2021/04/03 02:24:27;;;;;;;7.800001;5.8;;;;;;;4.1;60.03223;95327.78;;;;
2021/04/03 02:25:28;;;;;;;7.800001;5.8;;;;;;;4.1;60.03223;95327.78;;;;
2021/04/03 02:26:29;;;;;;;7.800001;5.8;;;;;;;4.1;60.03223;95327.78;;;;
2021/04/03 02:27:30;;;;;;;7.800001;5.8;;;;;;;4.1;60.03223;95327.78;;;;
2021/04/03 02:28:31;;;;;;;7.800001;5.8;;;;;;;4.1;60.03223;95327.78;;;;
2021/04/03 02:29:32;;;;;;;7.800001;5.8;;;;;;;4.1;60.03223;95327.78;;;;
2021/04/03 02:30:32;;;;;;;7.800001;5.8;;;;;;;4.1;60.03223;95327.78;;;;
2021/04/03 02:31:33;;;;;;;7.800001;5.8;;;;;;;4.1;60.03223;95327.78;;;;
2021/04/03 02:32:34;;;;;;;7.800001;5.8;;;;;;;4.1;60.03223;95327.78;;;;
2021/04/03 02:33:35;;;;;;;7.800001;5.8;;;;;;;4.1;60.03223;95327.78;;;;
2021/04/03 02:34:35;;;;;;;7.800001;5.8;;;;;;;4.1;60.03223;95327.78;;;;
2021/04/03 02:35:36;;;;;;;8.95;5.5;;;;;;;4.04;59.91992;95318.28;;;;
2021/04/03 02:36:36;;;;;;;8.95;5.5;;;;;;;4.04;59.91992;95318.28;;;;
2021/04/03 02:37:37;;;;;;;8.95;5.5;;;;;;;4.04;59.91992;95318.28;;;;
2021/04/03 02:38:38;;;;;;;8.95;5.5;;;;;;;4.04;59.91992;95318.28;;;;
2021/04/03 02:39:39;;;;;;;8.95;5.5;;;;;;;4.04;59.91992;95318.28;;;;
2021/04/03 02:40:40;;;;;;;8.95;5.5;;;;;;;4.04;59.91992;95318.28;;;;
2021/04/03 02:41:41;;;;;;;8.95;5.5;;;;;;;4.04;59.91992;95318.28;;;;
2021/04/03 02:42:46;;;;;;;8.95;5.5;;;;;;;4.04;59.91992;95318.28;;;;
2021/04/03 02:43:57;;;;;;;8.95;5.5;;;;;;;4.04;59.91992;95318.28;;;;
2021/04/03 02:45:04;;;;;;;8.95;5.5;;;;;;;4.04;59.91992;95318.28;;;;
2021/04/03 02:46:09;;;;;;;8.9;5.400001;;;;;;;4.01;59.7998;95315.06;;;;
2021/04/03 02:47:15;;;;;;;8.9;5.400001;;;;;;;4.01;59.7998;95315.06;;;;
2021/04/03 02:48:21;;;;;;;8.9;5.400001;;;;;;;4.01;59.7998;95315.06;;;;
2021/04/03 02:49:26;;;;;;;8.9;5.400001;;;;;;;4.01;59.7998;95315.06;;;;
2021/04/03 02:50:37;;;;;;;8.9;5.400001;;;;;;;4.01;59.7998;95315.06;;;;
2021/04/03 02:51:41;;;;;;;8.9;5.400001;;;;;;;4.01;59.7998;95315.06;;;;
2021/04/03 02:52:46;;;;;;;8.9;5.400001;;;;;;;4.01;59.7998;95315.06;;;;
2021/04/03 02:53:51;;;;;;;8.9;5.400001;;;;;;;4.01;59.7998;95315.06;;;;
2021/04/03 02:54:52;;;;;;;8.9;5.400001;;;;;;;4.01;59.7998;95315.06;;;;
2021/04/03 02:55:54;;;;;;;8.9;5.400001;;;;;;;4.01;59.7998;95315.06;;;;
2021/04/03 02:56:58;;;;;;;9.6;5.05;;;;;;;4.01;59.75488;95319.19;;;;
2021/04/03 02:58:01;;;;;;;9.6;5.05;;;;;;;4.01;59.75488;95319.19;;;;
2021/04/03 02:59:05;;;;;;;9.6;5.05;;;;;;;4.01;59.75488;95319.19;;;;
2021/04/03 03:00:11;;;;;;;9.6;5.05;;;;;;;4.01;59.75488;95319.19;;;;
2021/04/03 03:01:14;;;;;;;9.6;5.05;;;;;;;4.01;59.75488;95319.19;;;;
2021/04/03 03:02:15;;;;;;;9.6;5.05;;;;;;;4.01;59.75488;95319.19;;;;
2021/04/03 03:03:19;;;;;;;9.6;5.05;;;;;;;4.01;59.75488;95319.19;;;;
2021/04/03 03:04:22;;;;;;;9.6;5.05;;;;;;;4.01;59.75488;95319.19;;;;
2021/04/03 03:05:24;;;;;;;9.6;5.05;;;;;;;4.01;59.75488;95319.19;;;;
2021/04/03 03:06:25;;;;;;;9.6;5.05;;;;;;;4.01;59.75488;95319.19;;;;
2021/04/03 03:07:26;;;;;;;7.5;5.600001;;;;;;;4.01;59.60645;95327.2;;;;
2021/04/03 03:08:27;;;;;;;7.5;5.600001;;;;;;;4.01;59.60645;95327.2;;;;
2021/04/03 03:09:29;;;;;;;7.5;5.600001;;;;;;;4.01;59.60645;95327.2;;;;
2021/04/03 03:10:30;;;;;;;7.5;5.600001;;;;;;;4.01;59.60645;95327.2;;;;
2021/04/03 03:11:32;;;;;;;7.5;5.600001;;;;;;;4.01;59.60645;95327.2;;;;
2021/04/03 03:12:34;;;;;;;7.5;5.600001;;;;;;;4.01;59.60645;95327.2;;;;
2021/04/03 03:13:37;;;;;;;7.5;5.600001;;;;;;;4.01;59.60645;95327.2;;;;
2021/04/03 03:14:38;;;;;;;7.5;5.600001;;;;;;;4.01;59.60645;95327.2;;;;
2021/04/03 03:15:41;;;;;;;7.5;5.600001;;;;;;;4.01;59.60645;95327.2;;;;
2021/04/03 03:16:41;;;;;;;7.5;5.600001;;;;;;;4.01;59.60645;95327.2;;;;
2021/04/03 03:17:44;;;;;;;10.4;6.05;;;;;;;4.09;59.55566;95342.56;;;;
2021/04/03 03:18:46;;;;;;;10.4;6.05;;;;;;;4.09;59.55566;95342.56;;;;
2021/04/03 03:19:47;;;;;;;10.4;6.05;;;;;;;4.09;59.55566;95342.56;;;;
2021/04/03 03:20:49;;;;;;;10.4;6.05;;;;;;;4.09;59.55566;95342.56;;;;
2021/04/03 03:21:50;;;;;;;10.4;6.05;;;;;;;4.09;59.55566;95342.56;;;;
2021/04/03 03:22:51;;;;;;;10.4;6.05;;;;;;;4.09;59.55566;95342.56;;;;
2021/04/03 03:23:52;;;;;;;10.4;6.05;;;;;;;4.09;59.55566;95342.56;;;;
2021/04/03 03:24:52;;;;;;;10.4;6.05;;;;;;;4.09;59.55566;95342.56;;;;
2021/04/03 03:25:53;;;;;;;10.4;6.05;;;;;;;4.09;59.55566;95342.56;;;;
2021/04/03 03:26:55;;;;;;;10.4;6.05;;;;;;;4.09;59.55566;95342.56;;;;
2021/04/03 03:27:58;;;;;;;10.4;6.05;;;;;;;4.09;59.55566;95342.56;;;;
2021/04/03 03:29:00;;;;;;;9.299998;6;;;;;;;4.08;59.44922;95338.64;;;;
2021/04/03 03:30:02;;;;;;;9.299998;6;;;;;;;4.08;59.44922;95338.64;;;;
2021/04/03 03:31:05;;;;;;;9.299998;6;;;;;;;4.08;59.44922;95338.64;;;;
2021/04/03 03:32:06;;;;;;;9.299998;6;;;;;;;4.08;59.44922;95338.64;;;;
2021/04/03 03:33:07;;;;;;;9.299998;6;;;;;;;4.08;59.44922;95338.64;;;;
2021/04/03 03:34:08;;;;;;;9.299998;6;;;;;;;4.08;59.44922;95338.64;;;;
2021/04/03 03:35:09;;;;;;;9.299998;6;;;;;;;4.08;59.44922;95338.64;;;;
2021/04/03 03:36:12;;;;;;;9.299998;6;;;;;;;4.08;59.44922;95338.64;;;;
2021/04/03 03:37:13;;;;;;;9.299998;6;;;;;;;4.08;59.44922;95338.64;;;;
2021/04/03 03:38:14;;;;;;;9.299998;6;;;;;;;4.08;59.44922;95338.64;;;;
2021/04/03 03:39:16;;;;;;;8.700001;5.5;;;;;;;4.13;59.30762;95336.74;;;;
2021/04/03 03:40:17;;;;;;;8.700001;5.5;;;;;;;4.13;59.30762;95336.74;;;;
2021/04/03 03:41:19;;;;;;;8.700001;5.5;;;;;;;4.13;59.30762;95336.74;;;;
2021/04/03 03:42:21;;;;;;;8.700001;5.5;;;;;;;4.13;59.30762;95336.74;;;;
2021/04/03 03:43:21;;;;;;;8.700001;5.5;;;;;;;4.13;59.30762;95336.74;;;;
2021/04/03 03:44:22;;;;;;;8.700001;5.5;;;;;;;4.13;59.30762;95336.74;;;;
2021/04/03 03:45:23;;;;;;;8.700001;5.5;;;;;;;4.13;59.30762;95336.74;;;;
2021/04/03 03:46:24;;;;;;;8.700001;5.5;;;;;;;4.13;59.30762;95336.74;;;;
2021/04/03 03:47:25;;;;;;;8.700001;5.5;;;;;;;4.13;59.30762;95336.74;;;;
2021/04/03 03:48:25;;;;;;;8.700001;5.5;;;;;;;4.13;59.30762;95336.74;;;;
2021/04/03 03:49:26;;;;;;;8.700001;5.5;;;;;;;4.13;59.30762;95336.74;;;;
2021/04/03 03:50:26;;;;;;;11.8;5.799999;;;;;;;4.24;59.19531;95340.62;;;;
2021/04/03 03:51:27;;;;;;;11.8;5.799999;;;;;;;4.24;59.19531;95340.62;;;;
2021/04/03 03:52:28;;;;;;;11.8;5.799999;;;;;;;4.24;59.19531;95340.62;;;;
2021/04/03 03:53:28;;;;;;;11.8;5.799999;;;;;;;4.24;59.19531;95340.62;;;;
2021/04/03 03:54:29;;;;;;;11.8;5.799999;;;;;;;4.24;59.19531;95340.62;;;;
2021/04/03 03:55:29;;;;;;;11.8;5.799999;;;;;;;4.24;59.19531;95340.62;;;;
2021/04/03 03:56:30;;;;;;;11.8;5.799999;;;;;;;4.24;59.19531;95340.62;;;;
2021/04/03 03:57:31;;;;;;;11.8;5.799999;;;;;;;4.24;59.19531;95340.62;;;;
2021/04/03 03:58:31;;;;;;;11.8;5.799999;;;;;;;4.24;59.19531;95340.62;;;;
2021/04/03 03:59:32;;;;;;;11.8;5.799999;;;;;;;4.24;59.19531;95340.62;;;;
2021/04/03 04:00:32;;;;;;;8.950002;5.6;;;;;;;4.28;59.19922;95345.98;;;;
2021/04/03 04:01:33;;;;;;;8.950002;5.6;;;;;;;4.28;59.19922;95345.98;;;;
2021/04/03 04:02:33;;;;;;;8.950002;5.6;;;;;;;4.28;59.19922;95345.98;;;;
2021/04/03 04:03:34;;;;;;;8.950002;5.6;;;;;;;4.28;59.19922;95345.98;;;;
2021/04/03 04:04:34;;;;;;;8.950002;5.6;;;;;;;4.28;59.19922;95345.98;;;;
2021/04/03 04:05:35;;;;;;;8.950002;5.6;;;;;;;4.28;59.19922;95345.98;;;;
2021/04/03 04:06:36;;;;;;;8.950002;5.6;;;;;;;4.28;59.19922;95345.98;;;;
2021/04/03 04:07:36;;;;;;;8.950002;5.6;;;;;;;4.28;59.19922;95345.98;;;;
2021/04/03 04:08:37;;;;;;;8.950002;5.6;;;;;;;4.28;59.19922;95345.98;;;;
2021/04/03 04:09:37;;;;;;;8.950002;5.6;;;;;;;4.28;59.19922;95345.98;;;;
2021/04/03 04:10:38;;;;;;;8.950002;5.6;;;;;;;4.28;59.19922;95345.98;;;;
2021/04/03 04:11:38;;;;;;;10.4;5.95;;;;;;;4.16;59.41699;95335.83;;;;
2021/04/03 04:12:39;;;;;;;10.4;5.95;;;;;;;4.16;59.41699;95335.83;;;;
2021/04/03 04:13:40;;;;;;;10.4;5.95;;;;;;;4.16;59.41699;95335.83;;;;
2021/04/03 04:14:40;;;;;;;10.4;5.95;;;;;;;4.16;59.41699;95335.83;;;;
2021/04/03 04:15:41;;;;;;;10.4;5.95;;;;;;;4.16;59.41699;95335.83;;;;
2021/04/03 04:16:43;;;;;;;10.4;5.95;;;;;;;4.16;59.41699;95335.83;;;;
2021/04/03 04:17:43;;;;;;;10.4;5.95;;;;;;;4.16;59.41699;95335.83;;;;
2021/04/03 04:18:44;;;;;;;10.4;5.95;;;;;;;4.16;59.41699;95335.83;;;;
2021/04/03 04:19:46;;;;;;;10.4;5.95;;;;;;;4.16;59.41699;95335.83;;;;
2021/04/03 04:20:46;;;;;;;10.4;5.95;;;;;;;4.16;59.41699;95335.83;;;;
2021/04/03 04:21:47;;;;;;;10.4;5.95;;;;;;;4.16;59.41699;95335.83;;;;
2021/04/03 04:22:47;;;;;;;9.25;5.550001;;;;;;;4.12;59.57031;95334.14;;;;
2021/04/03 04:23:48;;;;;;;9.25;5.550001;;;;;;;4.12;59.57031;95334.14;;;;
2021/04/03 04:24:48;;;;;;;9.25;5.550001;;;;;;;4.12;59.57031;95334.14;;;;
2021/04/03 04:25:49;;;;;;;9.25;5.550001;;;;;;;4.12;59.57031;95334.14;;;;
2021/04/03 04:26:50;;;;;;;9.25;5.550001;;;;;;;4.12;59.57031;95334.14;;;;
2021/04/03 04:27:50;;;;;;;9.25;5.550001;;;;;;;4.12;59.57031;95334.14;;;;
2021/04/03 04:28:51;;;;;;;9.25;5.550001;;;;;;;4.12;59.57031;95334.14;;;;
2021/04/03 04:29:51;;;;;;;9.25;5.550001;;;;;;;4.12;59.57031;95334.14;;;;
2021/04/03 04:30:52;;;;;;;9.25;5.550001;;;;;;;4.12;59.57031;95334.14;;;;
2021/04/03 04:31:52;;;;;;;9.25;5.550001;;;;;;;4.12;59.57031;95334.14;;;;
2021/04/03 04:32:53;;;;;;;9.750001;5.849999;;;;;;;4.02;59.51563;95348.78;;;;
2021/04/03 04:33:54;;;;;;;9.750001;5.849999;;;;;;;4.02;59.51563;95348.78;;;;
2021/04/03 04:34:54;;;;;;;9.750001;5.849999;;;;;;;4.02;59.51563;95348.78;;;;
2021/04/03 04:35:55;;;;;;;9.750001;5.849999;;;;;;;4.02;59.51563;95348.78;;;;
2021/04/03 04:36:55;;;;;;;9.750001;5.849999;;;;;;;4.02;59.51563;95348.78;;;;
2021/04/03 04:37:56;;;;;;;9.750001;5.849999;;;;;;;4.02;59.51563;95348.78;;;;
2021/04/03 04:38:57;;;;;;;9.750001;5.849999;;;;;;;4.02;59.51563;95348.78;;;;
2021/04/03 04:39:57;;;;;;;9.750001;5.849999;;;;;;;4.02;59.51563;95348.78;;;;
2021/04/03 04:40:58;;;;;;;9.750001;5.849999;;;;;;;4.02;59.51563;95348.78;;;;
2021/04/03 04:41:59;;;;;;;9.750001;5.849999;;;;;;;4.02;59.51563;95348.78;;;;
2021/04/03 04:42:59;;;;;;;9.750001;5.849999;;;;;;;4.02;59.51563;95348.78;;;;
2021/04/03 04:44:00;;;;;;;9.450001;5.2;;;;;;;3.98;59.4668;95359.53;;;;
2021/04/03 04:45:00;;;;;;;9.450001;5.2;;;;;;;3.98;59.4668;95359.53;;;;
2021/04/03 04:46:01;;;;;;;9.450001;5.2;;;;;;;3.98;59.4668;95359.53;;;;
2021/04/03 04:47:02;;;;;;;9.450001;5.2;;;;;;;3.98;59.4668;95359.53;;;;
2021/04/03 04:48:03;;;;;;;9.450001;5.2;;;;;;;3.98;59.4668;95359.53;;;;
2021/04/03 04:49:04;;;;;;;9.450001;5.2;;;;;;;3.98;59.4668;95359.53;;;;
2021/04/03 04:50:04;;;;;;;9.450001;5.2;;;;;;;3.98;59.4668;95359.53;;;;
2021/04/03 04:51:07;;;;;;;9.450001;5.2;;;;;;;3.98;59.4668;95359.53;;;;
2021/04/03 04:52:08;;;;;;;9.450001;5.2;;;;;;;3.98;59.4668;95359.53;;;;
2021/04/03 04:53:09;;;;;;;9.450001;5.2;;;;;;;3.98;59.4668;95359.53;;;;
2021/04/03 04:54:09;;;;;;;7.7;5.25;;;;;;;3.97;59.45313;95376.67;;;;
2021/04/03 04:55:10;;;;;;;7.7;5.25;;;;;;;3.97;59.45313;95376.67;;;;
2021/04/03 04:56:12;;;;;;;7.7;5.25;;;;;;;3.97;59.45313;95376.67;;;;
2021/04/03 04:57:12;;;;;;;7.7;5.25;;;;;;;3.97;59.45313;95376.67;;;;
2021/04/03 04:58:13;;;;;;;7.7;5.25;;;;;;;3.97;59.45313;95376.67;;;;
2021/04/03 04:59:13;;;;;;;7.7;5.25;;;;;;;3.97;59.45313;95376.67;;;;
2021/04/03 05:00:14;;;;;;;7.7;5.25;;;;;;;3.97;59.45313;95376.67;;;;
2021/04/03 05:01:16;;;;;;;7.7;5.25;;;;;;;3.97;59.45313;95376.67;;;;
2021/04/03 05:02:16;;;;;;;7.7;5.25;;;;;;;3.97;59.45313;95376.67;;;;
2021/04/03 05:03:17;;;;;;;7.7;5.25;;;;;;;3.97;59.45313;95376.67;;;;
2021/04/03 05:04:17;;;;;;;7.7;5.25;;;;;;;3.97;59.45313;95376.67;;;;
2021/04/03 05:05:18;;;;;;;11.15;5.25;;;;;;;4.02;59.41992;95391.52;;;;
2021/04/03 05:06:18;;;;;;;11.15;5.25;;;;;;;4.02;59.41992;95391.52;;;;
2021/04/03 05:07:19;;;;;;;11.15;5.25;;;;;;;4.02;59.41992;95391.52;;;;
2021/04/03 05:08:19;;;;;;;11.15;5.25;;;;;;;4.02;59.41992;95391.52;;;;
2021/04/03 05:09:20;;;;;;;11.15;5.25;;;;;;;4.02;59.41992;95391.52;;;;
2021/04/03 05:10:20;;;;;;;11.15;5.25;;;;;;;4.02;59.41992;95391.52;;;;
2021/04/03 05:11:21;;;;;;;11.15;5.25;;;;;;;4.02;59.41992;95391.52;;;;
2021/04/03 05:12:21;;;;;;;11.15;5.25;;;;;;;4.02;59.41992;95391.52;;;;
2021/04/03 05:13:22;;;;;;;11.15;5.25;;;;;;;4.02;59.41992;95391.52;;;;
2021/04/03 05:14:22;;;;;;;11.15;5.25;;;;;;;4.02;59.41992;95391.52;;;;
2021/04/03 05:15:23;;;;;;;10.15;5.5;;;;;;;4.12;59.32715;95400.02;;;;
2021/04/03 05:16:23;;;;;;;10.15;5.5;;;;;;;4.12;59.32715;95400.02;;;;
2021/04/03 05:17:24;;;;;;;10.15;5.5;;;;;;;4.12;59.32715;95400.02;;;;
2021/04/03 05:18:25;;;;;;;10.15;5.5;;;;;;;4.12;59.32715;95400.02;;;;
2021/04/03 05:19:25;;;;;;;10.15;5.5;;;;;;;4.12;59.32715;95400.02;;;;
2021/04/03 05:20:26;;;;;;;10.15;5.5;;;;;;;4.12;59.32715;95400.02;;;;
2021/04/03 05:21:26;;;;;;;10.15;5.5;;;;;;;4.12;59.32715;95400.02;;;;
2021/04/03 05:22:27;;;;;;;10.15;5.5;;;;;;;4.12;59.32715;95400.02;;;;
2021/04/03 05:23:27;;;;;;;10.15;5.5;;;;;;;4.12;59.32715;95400.02;;;;
2021/04/03 05:24:28;;;;;;;10.15;5.5;;;;;;;4.12;59.32715;95400.02;;;;
2021/04/03 05:25:28;;;;;;;10.15;5.5;;;;;;;4.12;59.32715;95400.02;;;;
2021/04/03 05:26:29;;;;;;;8.099998;4.650001;;;;;;;4.15;59.56348;95425.12;;;;
2021/04/03 05:27:30;;;;;;;8.099998;4.650001;;;;;;;4.15;59.56348;95425.12;;;;
2021/04/03 05:28:30;;;;;;;8.099998;4.650001;;;;;;;4.15;59.56348;95425.12;;;;
2021/04/03 05:29:31;;;;;;;8.099998;4.650001;;;;;;;4.15;59.56348;95425.12;;;;
2021/04/03 05:30:31;;;;;;;8.099998;4.650001;;;;;;;4.15;59.56348;95425.12;;;;
2021/04/03 05:31:31;;;;;;;8.099998;4.650001;;;;;;;4.15;59.56348;95425.12;;;;
2021/04/03 05:32:32;;;;;;;8.099998;4.650001;;;;;;;4.15;59.56348;95425.12;;;;
2021/04/03 05:33:33;;;;;;;8.099998;4.650001;;;;;;;4.15;59.56348;95425.12;;;;
2021/04/03 05:34:34;;;;;;;8.099998;4.650001;;;;;;;4.15;59.56348;95425.12;;;;
2021/04/03 05:35:35;;;;;;;8.099998;4.650001;;;;;;;4.15;59.56348;95425.12;;;;
2021/04/03 05:36:35;;;;;;;14.15;4.599999;;;;;;;4.13;59.75195;95449.36;;;;
2021/04/03 05:37:36;;;;;;;14.15;4.599999;;;;;;;4.13;59.75195;95449.36;;;;
2021/04/03 05:38:36;;;;;;;14.15;4.599999;;;;;;;4.13;59.75195;95449.36;;;;
2021/04/03 05:39:37;;;;;;;14.15;4.599999;;;;;;;4.13;59.75195;95449.36;;;;
2021/04/03 05:40:37;;;;;;;14.15;4.599999;;;;;;;4.13;59.75195;95449.36;;;;
2021/04/03 05:41:38;;;;;;;14.15;4.599999;;;;;;;4.13;59.75195;95449.36;;;;
2021/04/03 05:42:38;;;;;;;14.15;4.599999;;;;;;;4.13;59.75195;95449.36;;;;
2021/04/03 05:43:44;;;;;;;14.15;4.599999;;;;;;;4.13;59.75195;95449.36;;;;
2021/04/03 05:44:46;;;;;;;14.15;4.599999;;;;;;;4.13;59.75195;95449.36;;;;
2021/04/03 05:45:48;;;;;;;14.15;4.599999;;;;;;;4.13;59.75195;95449.36;;;;